Time;durP1;ratioP1;P1;durP2;ratioP2;P2;SDS_P1;SDS_P2;PMS_P1;PMS_P2;Temp;Humidity;BMP_temperature;BMP_pressure;BME280_temperature;BME280_humidity;BME280_pressure;Samples;Min_cycle;Max_cycle;Signal;HPM_P1;HPM_P2
2023/12/15 00:00:45;;;;;;;12.90;12.60;;;22.10;52.80;;;;;;4999172;28;20981;-70
2023/12/15 00:03:12;;;;;;;11.50;11.20;;;22.00;52.70;;;;;;4993688;28;20470;-70
2023/12/15 00:05:39;;;;;;;12.33;11.93;;;22.00;52.70;;;;;;4993819;28;20486;-70
2023/12/15 00:08:06;;;;;;;12.47;12.07;;;22.00;52.80;;;;;;4997654;28;20507;-70
2023/12/15 00:10:35;;;;;;;12.23;11.90;;;22.00;52.80;;;;;;4993402;28;20905;-70
2023/12/15 00:13:01;;;;;;;11.83;11.53;;;22.00;52.80;;;;;;4993496;28;20447;-70
2023/12/15 00:15:28;;;;;;;12.20;11.87;;;22.00;52.80;;;;;;4993527;28;20474;-70
2023/12/15 00:17:55;;;;;;;12.70;12.30;;;22.00;52.80;;;;;;4998077;28;20481;-70
2023/12/15 00:20:22;;;;;;;12.83;12.43;;;22.00;52.80;;;;;;4993625;28;21040;-70
2023/12/15 00:22:49;;;;;;;11.50;11.20;;;21.90;52.70;;;;;;4993220;28;20479;-69
2023/12/15 00:25:16;;;;;;;12.00;11.60;;;22.00;52.90;;;;;;4993353;28;20939;-69
2023/12/15 00:27:44;;;;;;;11.57;11.27;;;21.90;52.90;;;;;;4997551;28;20894;-69
2023/12/15 00:30:13;;;;;;;12.10;11.80;;;21.90;53.00;;;;;;4993045;28;20454;-70
2023/12/15 00:32:40;;;;;;;12.50;12.20;;;21.90;53.00;;;;;;4989165;28;20981;-70
2023/12/15 00:35:07;;;;;;;12.10;11.80;;;21.90;53.10;;;;;;4993178;28;20524;-68
2023/12/15 00:37:34;;;;;;;12.20;11.90;;;21.90;53.10;;;;;;4993139;28;21235;-70
2023/12/15 00:40:01;;;;;;;11.90;11.57;;;21.90;53.10;;;;;;4992918;28;20497;-70
2023/12/15 00:42:28;;;;;;;11.57;11.27;;;21.90;53.10;;;;;;4993025;28;20537;-70
2023/12/15 00:44:57;;;;;;;12.27;11.90;;;21.90;53.20;;;;;;4993146;28;20443;-69
2023/12/15 00:47:24;;;;;;;12.00;11.60;;;21.90;53.10;;;;;;4993910;28;20482;-70
2023/12/15 00:49:51;;;;;;;12.10;11.80;;;21.80;53.10;;;;;;4995569;28;20495;-70
2023/12/15 00:52:17;;;;;;;12.00;11.70;;;21.80;53.10;;;;;;4992849;28;20451;-69
2023/12/15 00:54:44;;;;;;;12.30;12.00;;;21.80;53.10;;;;;;4992804;28;20488;-69
2023/12/15 00:57:11;;;;;;;12.53;12.13;;;21.90;53.30;;;;;;4992711;28;20471;-70
2023/12/15 00:59:38;;;;;;;12.20;11.90;;;21.80;53.20;;;;;;4995950;28;20497;-69
2023/12/15 01:02:08;;;;;;;11.90;11.60;;;21.80;53.30;;;;;;4992527;28;20486;-70
2023/12/15 01:04:34;;;;;;;11.73;11.43;;;21.80;53.30;;;;;;4992693;28;20545;-70
2023/12/15 01:07:01;;;;;;;11.60;11.30;;;21.80;53.40;;;;;;4992951;28;20447;-70
2023/12/15 01:09:28;;;;;;;11.60;11.30;;;21.80;53.40;;;;;;4993388;28;20887;-69
2023/12/15 01:11:55;;;;;;;11.63;11.33;;;21.80;53.40;;;;;;4992375;28;20481;-69
2023/12/15 01:14:22;;;;;;;11.40;11.10;;;21.80;53.40;;;;;;4992627;28;20482;-69
2023/12/15 01:16:50;;;;;;;11.80;11.40;;;21.80;53.40;;;;;;4992484;28;20482;-69
2023/12/15 01:19:19;;;;;;;11.63;11.33;;;21.80;53.40;;;;;;4992026;28;20486;-69
2023/12/15 01:21:46;;;;;;;11.67;11.37;;;21.80;53.40;;;;;;4992282;28;20475;-70
2023/12/15 01:24:13;;;;;;;11.90;11.60;;;21.70;53.40;;;;;;4984479;28;20970;-70
2023/12/15 01:26:40;;;;;;;12.37;12.07;;;21.70;53.40;;;;;;4992410;28;20873;-70
2023/12/15 01:29:07;;;;;;;12.10;11.70;;;21.70;53.40;;;;;;4992054;28;20483;-69
2023/12/15 01:31:34;;;;;;;11.80;11.50;;;21.70;53.50;;;;;;4992380;28;20475;-69
2023/12/15 01:34:00;;;;;;;11.60;11.30;;;21.70;53.50;;;;;;4992265;28;20478;-70
2023/12/15 01:36:28;;;;;;;11.43;11.13;;;21.70;53.50;;;;;;4992364;28;20475;-69
2023/12/15 01:38:55;;;;;;;11.50;11.20;;;21.70;53.60;;;;;;4999571;28;20462;-69
2023/12/15 01:41:22;;;;;;;12.27;11.87;;;21.70;53.60;;;;;;4992458;28;20481;-69
2023/12/15 01:43:49;;;;;;;12.40;11.90;;;21.70;53.60;;;;;;4992293;28;20475;-69
2023/12/15 01:46:16;;;;;;;11.70;11.40;;;21.70;53.70;;;;;;4992086;28;21005;-70
2023/12/15 01:48:43;;;;;;;14.40;14.00;;;21.70;53.70;;;;;;4992044;28;20565;-69
2023/12/15 01:51:10;;;;;;;11.70;11.40;;;21.70;53.70;;;;;;4992214;28;20471;-68
2023/12/15 01:53:38;;;;;;;11.90;11.60;;;21.70;53.70;;;;;;4992106;28;20479;-69
2023/12/15 01:56:08;;;;;;;12.47;11.80;;;21.60;53.60;;;;;;4992199;28;20985;-70
2023/12/15 01:58:35;;;;;;;11.67;11.37;;;21.70;53.70;;;;;;4992121;28;20475;-70
2023/12/15 02:01:02;;;;;;;12.07;11.67;;;21.60;53.60;;;;;;4991828;28;20482;-69
2023/12/15 02:03:29;;;;;;;11.50;11.20;;;21.60;53.60;;;;;;4991989;28;20489;-70
2023/12/15 02:05:55;;;;;;;11.40;11.10;;;21.60;53.60;;;;;;4991717;28;20478;-69
2023/12/15 02:08:22;;;;;;;10.97;10.67;;;21.60;53.70;;;;;;4998894;28;20513;-70
2023/12/15 02:10:51;;;;;;;11.47;11.17;;;21.60;53.70;;;;;;4992034;28;20510;-70
2023/12/15 02:13:18;;;;;;;11.50;11.20;;;21.60;53.80;;;;;;4991919;28;20477;-70
2023/12/15 02:15:44;;;;;;;11.10;10.80;;;21.60;53.90;;;;;;4996061;28;20466;-70
2023/12/15 02:18:12;;;;;;;11.20;10.90;;;21.60;53.90;;;;;;4991728;28;20467;-70
2023/12/15 02:20:39;;;;;;;10.93;10.73;;;21.60;53.90;;;;;;4991850;28;20517;-69
2023/12/15 02:23:07;;;;;;;11.20;10.90;;;21.60;54.00;;;;;;4991684;28;20478;-70
2023/12/15 02:25:34;;;;;;;11.97;11.67;;;21.60;54.00;;;;;;4995219;28;20977;-69
2023/12/15 02:28:01;;;;;;;11.57;11.27;;;21.60;54.00;;;;;;4991927;28;20593;-69
2023/12/15 02:30:27;;;;;;;11.93;11.63;;;21.60;54.10;;;;;;4991814;28;20497;-70
2023/12/15 02:32:53;;;;;;;11.73;11.40;;;21.60;54.00;;;;;;4993942;28;20467;-70
2023/12/15 02:35:20;;;;;;;11.40;11.10;;;21.50;53.90;;;;;;4995630;28;20224;-70
2023/12/15 02:37:47;;;;;;;11.67;11.27;;;21.50;53.90;;;;;;4995309;28;20435;-70
2023/12/15 02:40:16;;;;;;;10.80;10.60;;;21.60;54.00;;;;;;4995417;28;20490;-70
2023/12/15 02:42:43;;;;;;;11.83;11.53;;;21.60;54.00;;;;;;4995386;28;20486;-70
2023/12/15 02:45:10;;;;;;;11.23;10.93;;;21.60;54.00;;;;;;5000784;28;20881;-70
2023/12/15 02:47:37;;;;;;;11.50;11.20;;;21.50;54.00;;;;;;4995123;28;20447;-70
2023/12/15 02:50:04;;;;;;;11.27;10.97;;;21.60;54.10;;;;;;4994960;28;20498;-69
2023/12/15 02:52:31;;;;;;;11.60;11.30;;;21.50;54.00;;;;;;4994960;28;20962;-69
2023/12/15 02:54:58;;;;;;;11.80;11.50;;;21.50;54.00;;;;;;5000158;28;20860;-70
2023/12/15 02:57:27;;;;;;;11.60;11.30;;;21.50;54.00;;;;;;4995012;28;20494;-70
2023/12/15 02:59:54;;;;;;;12.20;11.90;;;21.50;54.00;;;;;;4995069;28;20822;-69
2023/12/15 03:02:20;;;;;;;11.33;11.03;;;21.50;54.10;;;;;;4994917;28;20474;-70
2023/12/15 03:04:47;;;;;;;12.00;11.60;;;21.50;54.10;;;;;;4994856;28;20492;-70
2023/12/15 03:07:14;;;;;;;12.20;11.90;;;21.50;54.00;;;;;;4994758;28;20440;-70
2023/12/15 03:09:41;;;;;;;11.60;11.30;;;21.50;54.10;;;;;;4994723;28;20514;-70
2023/12/15 03:12:08;;;;;;;12.00;11.70;;;21.50;54.10;;;;;;4996791;28;20474;-70
2023/12/15 03:14:36;;;;;;;11.90;11.60;;;21.50;54.10;;;;;;4994846;28;20475;-69
2023/12/15 03:17:04;;;;;;;10.87;10.63;;;21.50;54.10;;;;;;4994588;28;20443;-70
2023/12/15 03:19:31;;;;;;;12.50;12.20;;;21.50;54.10;;;;;;4994491;28;20478;-70
2023/12/15 03:21:58;;;;;;;12.40;12.10;;;21.50;54.10;;;;;;4994367;28;20443;-70
2023/12/15 03:24:25;;;;;;;11.87;11.37;;;21.50;54.10;;;;;;4994632;28;20478;-70
2023/12/15 03:26:51;;;;;;;12.20;11.83;;;21.50;54.20;;;;;;4994416;28;20475;-70
2023/12/15 03:29:18;;;;;;;12.10;11.70;;;21.40;54.20;;;;;;4986503;28;20506;-70
2023/12/15 03:31:47;;;;;;;12.50;12.10;;;21.50;54.30;;;;;;4994336;28;20467;-69
2023/12/15 03:34:14;;;;;;;11.80;11.50;;;21.40;54.20;;;;;;4994320;28;20439;-69
2023/12/15 03:36:41;;;;;;;12.10;11.80;;;21.40;54.20;;;;;;4994457;28;20482;-70
2023/12/15 03:39:09;;;;;;;11.63;11.23;;;21.40;54.20;;;;;;4994458;28;20498;-70
2023/12/15 03:41:36;;;;;;;11.67;11.37;;;21.50;54.30;;;;;;5001152;28;20447;-70
2023/12/15 03:44:03;;;;;;;11.23;10.93;;;21.50;54.40;;;;;;4993996;28;20462;-70
2023/12/15 03:46:31;;;;;;;12.00;11.70;;;21.40;54.30;;;;;;4994083;28;20474;-69
2023/12/15 03:48:59;;;;;;;12.47;12.07;;;21.40;54.30;;;;;;4994086;28;20514;-70
2023/12/15 03:51:26;;;;;;;11.73;11.43;;;21.40;54.30;;;;;;5000861;28;20479;-70
2023/12/15 03:53:53;;;;;;;11.17;10.93;;;21.40;54.30;;;;;;4994130;28;20482;-69
2023/12/15 03:56:24;;;;;;;11.30;11.00;;;21.40;54.40;;;;;;4985868;28;20474;-70
2023/12/15 03:58:51;;;;;;;11.10;10.80;;;21.40;54.30;;;;;;4993937;28;20958;-70
2023/12/15 04:01:18;;;;;;;12.10;11.70;;;21.40;54.40;;;;;;5000279;28;20439;-70
2023/12/15 04:03:45;;;;;;;12.70;12.20;;;21.40;54.40;;;;;;4993790;28;21013;-69
2023/12/15 04:06:14;;;;;;;14.40;14.00;;;21.40;54.40;;;;;;4993648;28;20483;-70
2023/12/15 04:08:41;;;;;;;13.17;12.87;;;21.40;54.40;;;;;;4993448;28;20987;-70
2023/12/15 04:11:08;;;;;;;13.23;12.83;;;21.40;54.40;;;;;;4999971;28;20452;-70
2023/12/15 04:13:35;;;;;;;12.70;12.30;;;21.40;54.40;;;;;;4993692;28;20475;-70
2023/12/15 04:16:04;;;;;;;11.83;11.53;;;21.40;54.40;;;;;;4993421;28;20478;-70
2023/12/15 04:18:32;;;;;;;12.77;12.47;;;21.40;54.50;;;;;;4993247;28;20478;-70
2023/12/15 04:21:00;;;;;;;12.27;11.97;;;21.40;54.50;;;;;;4993392;28;20799;-70
2023/12/15 04:23:28;;;;;;;12.90;12.60;;;21.40;54.50;;;;;;4994474;28;20454;-70
2023/12/15 04:25:54;;;;;;;13.37;12.97;;;21.40;54.50;;;;;;4993403;28;20486;-70
2023/12/15 04:28:21;;;;;;;12.80;12.43;;;21.40;54.50;;;;;;4985305;28;20989;-69
2023/12/15 04:30:48;;;;;;;12.40;12.00;;;21.40;54.60;;;;;;4993430;28;20509;-69
2023/12/15 04:33:15;;;;;;;12.50;12.20;;;21.40;54.60;;;;;;4993102;28;20517;-70
2023/12/15 04:35:42;;;;;;;12.23;11.83;;;21.30;54.70;;;;;;4993191;28;20517;-70
2023/12/15 04:38:09;;;;;;;12.20;11.90;;;21.40;54.80;;;;;;4992977;28;20819;-69
2023/12/15 04:40:37;;;;;;;12.27;11.97;;;21.30;55.20;;;;;;4993506;28;20498;-69
2023/12/15 04:43:04;;;;;;;12.60;12.30;;;21.40;54.80;;;;;;4993068;28;20462;-70
2023/12/15 04:45:31;;;;;;;13.00;12.50;;;21.40;54.90;;;;;;4993180;28;20482;-69
2023/12/15 04:47:58;;;;;;;12.53;12.07;;;21.40;54.80;;;;;;4992686;28;20474;-69
2023/12/15 04:50:25;;;;;;;11.93;11.53;;;21.30;54.80;;;;;;4993014;28;20510;-69
2023/12/15 04:52:52;;;;;;;12.93;12.57;;;21.40;54.90;;;;;;4993006;28;20470;-69
2023/12/15 04:55:19;;;;;;;13.43;13.03;;;21.30;54.90;;;;;;4992260;28;20474;-69
2023/12/15 04:57:47;;;;;;;12.53;12.13;;;21.30;54.90;;;;;;4993082;28;20482;-69
2023/12/15 05:00:15;;;;;;;11.87;11.57;;;21.30;55.00;;;;;;4992517;28;20498;-69
2023/12/15 05:02:42;;;;;;;13.17;12.83;;;21.30;55.10;;;;;;4992734;28;20535;-69
2023/12/15 05:05:09;;;;;;;14.00;13.63;;;21.30;55.10;;;;;;4992603;28;20479;-70
2023/12/15 05:07:36;;;;;;;13.30;12.90;;;21.30;55.10;;;;;;4992568;28;20442;-70
2023/12/15 05:10:03;;;;;;;13.40;13.10;;;21.30;55.20;;;;;;4992631;28;20482;-70
2023/12/15 05:12:34;;;;;;;13.43;13.07;;;21.30;55.20;;;;;;4997843;28;20534;-69
2023/12/15 05:15:02;;;;;;;12.70;12.40;;;21.30;55.20;;;;;;4992452;28;20445;-69
2023/12/15 05:17:30;;;;;;;14.57;14.17;;;21.30;55.20;;;;;;4992378;28;20454;-69
2023/12/15 05:19:56;;;;;;;14.37;13.97;;;21.30;55.20;;;;;;4992566;28;20467;-70
2023/12/15 05:22:24;;;;;;;13.63;13.20;;;21.30;55.20;;;;;;4992317;28;20486;-70
2023/12/15 05:24:51;;;;;;;13.20;12.90;;;21.30;55.30;;;;;;4992378;28;20976;-70
2023/12/15 05:27:18;;;;;;;14.40;14.00;;;21.30;55.30;;;;;;4992229;28;20554;-69
2023/12/15 05:29:46;;;;;;;14.33;13.93;;;21.30;55.40;;;;;;4992701;28;20518;-70
2023/12/15 05:32:15;;;;;;;15.07;14.60;;;21.30;55.50;;;;;;4992077;28;20451;-69
2023/12/15 05:34:42;;;;;;;14.33;13.93;;;21.30;55.50;;;;;;4992341;28;20443;-70
2023/12/15 05:37:10;;;;;;;14.37;13.97;;;21.30;55.50;;;;;;4992456;28;20470;-70
2023/12/15 05:39:37;;;;;;;13.33;13.03;;;21.30;55.60;;;;;;4992183;28;20455;-70
2023/12/15 05:42:05;;;;;;;14.67;14.17;;;21.30;55.60;;;;;;4992101;28;20471;-70
2023/12/15 05:44:31;;;;;;;14.63;14.13;;;21.30;55.70;;;;;;4992198;28;20479;-69
2023/12/15 05:46:58;;;;;;;13.90;13.50;;;21.30;55.70;;;;;;4991946;28;20493;-69
2023/12/15 05:49:26;;;;;;;14.03;13.63;;;21.30;55.70;;;;;;4991938;28;20514;-70
2023/12/15 05:51:53;;;;;;;14.50;14.10;;;21.30;55.70;;;;;;4992007;28;20478;-69
2023/12/15 05:54:20;;;;;;;15.00;14.60;;;21.30;55.80;;;;;;4992099;28;20466;-74
2023/12/15 05:56:48;;;;;;;15.80;15.30;;;21.30;56.90;;;;;;4991725;28;20478;-75
2023/12/15 05:59:15;;;;;;;14.43;14.03;;;21.40;56.90;;;;;;4992178;28;20490;-76
2023/12/15 06:01:42;;;;;;;15.50;14.93;;;21.40;57.40;;;;;;4991853;28;20447;-74
2023/12/15 06:04:09;;;;;;;14.70;14.10;;;21.50;57.60;;;;;;4991959;28;20489;-68
2023/12/15 06:06:37;;;;;;;13.93;13.53;;;21.50;57.50;;;;;;4992569;28;20483;-76
2023/12/15 06:09:04;;;;;;;14.07;13.67;;;21.50;57.00;;;;;;5002778;28;20554;-76
2023/12/15 06:11:31;;;;;;;13.67;13.27;;;21.50;56.70;;;;;;4995797;28;20457;-76
2023/12/15 06:13:58;;;;;;;16.30;15.00;;;21.50;56.60;;;;;;4995998;28;20475;-76
2023/12/15 06:16:25;;;;;;;17.63;16.13;;;21.50;57.20;;;;;;4987868;28;20475;-76
2023/12/15 06:18:52;;;;;;;18.93;16.67;;;21.50;57.70;;;;;;5001717;28;20490;-76
2023/12/15 06:21:23;;;;;;;18.40;16.87;;;21.60;58.90;;;;;;4995909;28;21121;-76
2023/12/15 06:23:51;;;;;;;21.63;18.53;;;21.60;60.60;;;;;;4995676;28;20467;-76
2023/12/15 06:26:19;;;;;;;23.43;18.30;;;21.70;62.50;;;;;;4995598;28;20446;-76
2023/12/15 06:28:46;;;;;;;22.10;18.43;;;21.70;64.70;;;;;;4995681;28;20470;-76
2023/12/15 06:31:13;;;;;;;22.60;20.40;;;21.80;69.00;;;;;;4995303;28;20474;-76
2023/12/15 06:33:40;;;;;;;20.40;18.17;;;21.80;72.60;;;;;;5001580;28;20455;-67
2023/12/15 06:36:08;;;;;;;38.70;21.87;;;21.80;73.50;;;;;;4997842;28;20482;-67
2023/12/15 06:38:36;;;;;;;21.43;19.33;;;21.80;74.70;;;;;;4995548;28;20474;-68
2023/12/15 06:41:05;;;;;;;28.90;18.83;;;21.80;75.80;;;;;;4995195;28;20518;-68
2023/12/15 06:43:32;;;;;;;21.70;19.40;;;21.80;75.90;;;;;;4995277;28;20478;-68
2023/12/15 06:45:59;;;;;;;22.23;19.90;;;21.80;75.80;;;;;;4995035;28;20470;-68
2023/12/15 06:48:26;;;;;;;22.43;20.50;;;21.80;75.60;;;;;;4987396;28;20467;-68
2023/12/15 06:50:53;;;;;;;23.93;19.57;;;21.70;74.80;;;;;;4995142;28;20525;-68
2023/12/15 06:53:20;;;;;;;31.70;17.87;;;21.70;74.30;;;;;;4994924;28;20478;-68
2023/12/15 06:55:47;;;;;;;20.40;18.50;;;21.70;73.70;;;;;;4994915;28;20481;-68
2023/12/15 06:58:15;;;;;;;21.40;19.60;;;21.70;73.20;;;;;;4994888;28;20470;-68
2023/12/15 07:00:42;;;;;;;20.70;18.90;;;21.70;72.60;;;;;;4994760;28;20518;-67
2023/12/15 07:03:09;;;;;;;18.00;16.77;;;21.60;72.00;;;;;;4994759;28;20497;-68
2023/12/15 07:05:36;;;;;;;21.17;18.90;;;21.60;71.60;;;;;;4994940;28;20494;-68
2023/12/15 07:08:03;;;;;;;19.83;18.13;;;21.60;71.20;;;;;;4994686;28;20478;-68
2023/12/15 07:10:30;;;;;;;18.77;16.80;;;21.60;70.70;;;;;;4994674;28;21134;-68
2023/12/15 07:12:57;;;;;;;18.87;17.37;;;21.60;70.10;;;;;;4994533;28;20478;-67
2023/12/15 07:15:28;;;;;;;20.37;18.47;;;21.60;69.70;;;;;;4994428;28;20482;-68
2023/12/15 07:17:55;;;;;;;21.90;19.70;;;21.60;69.20;;;;;;4994324;28;20458;-68
2023/12/15 07:20:24;;;;;;;17.43;16.43;;;21.50;68.60;;;;;;4994257;28;20458;-68
2023/12/15 07:22:51;;;;;;;18.77;17.43;;;21.50;68.20;;;;;;4994624;28;20539;-68
2023/12/15 07:25:18;;;;;;;18.70;17.30;;;21.50;67.80;;;;;;4994435;28;20474;-68
2023/12/15 07:27:45;;;;;;;19.17;17.50;;;21.50;67.40;;;;;;4994365;28;20842;-68
2023/12/15 07:30:12;;;;;;;20.27;18.63;;;21.50;67.00;;;;;;4994130;28;20517;-67
2023/12/15 07:32:40;;;;;;;18.97;17.23;;;21.50;66.60;;;;;;4994315;28;20976;-68
2023/12/15 07:35:08;;;;;;;17.93;16.90;;;21.50;66.30;;;;;;4994133;28;20486;-67
2023/12/15 07:37:35;;;;;;;17.77;16.70;;;21.50;66.00;;;;;;4994193;28;20450;-67
2023/12/15 07:40:03;;;;;;;17.03;15.63;;;21.50;65.70;;;;;;4994140;28;20543;-68
2023/12/15 07:42:30;;;;;;;17.93;16.73;;;21.40;65.20;;;;;;4986355;28;20869;-68
2023/12/15 07:44:58;;;;;;;17.77;16.50;;;21.40;64.90;;;;;;4993973;28;20486;-68
2023/12/15 07:47:25;;;;;;;18.07;17.00;;;21.40;64.60;;;;;;4993913;28;20470;-67
2023/12/15 07:49:53;;;;;;;18.37;16.93;;;21.40;64.30;;;;;;4993834;28;20922;-68
2023/12/15 07:52:20;;;;;;;20.33;18.73;;;21.40;64.10;;;;;;4993822;28;20474;-68
2023/12/15 07:54:47;;;;;;;16.60;15.50;;;21.40;63.80;;;;;;4993854;28;20478;-68
2023/12/15 07:57:15;;;;;;;18.07;16.50;;;21.40;63.50;;;;;;4993933;28;20934;-68
2023/12/15 07:59:42;;;;;;;16.73;15.83;;;21.40;63.30;;;;;;4993596;28;20492;-67
2023/12/15 08:02:09;;;;;;;17.67;16.03;;;21.40;63.10;;;;;;4993606;28;20479;-66
2023/12/15 08:04:36;;;;;;;14.93;14.30;;;21.40;62.80;;;;;;4993744;28;20478;-68
2023/12/15 08:07:04;;;;;;;17.90;16.17;;;21.30;62.50;;;;;;4993653;28;20475;-68
2023/12/15 08:09:31;;;;;;;15.70;14.50;;;21.30;62.30;;;;;;4985729;28;20573;-66
2023/12/15 08:11:58;;;;;;;16.13;15.13;;;21.30;62.00;;;;;;4993587;28;20474;-68
2023/12/15 08:14:27;;;;;;;17.47;16.60;;;21.30;61.80;;;;;;4993328;28;20474;-67
2023/12/15 08:16:53;;;;;;;18.33;17.03;;;21.30;61.60;;;;;;4993451;28;20458;-67
2023/12/15 08:19:20;;;;;;;18.23;16.97;;;21.30;61.40;;;;;;4993045;28;20494;-67
2023/12/15 08:21:48;;;;;;;17.10;15.90;;;21.30;61.30;;;;;;4993249;28;20479;-67
2023/12/15 08:24:16;;;;;;;15.20;14.40;;;21.30;61.10;;;;;;4993139;28;20449;-68
2023/12/15 08:26:43;;;;;;;17.67;16.47;;;21.30;60.90;;;;;;4993319;28;20474;-67
2023/12/15 08:29:10;;;;;;;15.73;15.03;;;21.30;60.70;;;;;;4992338;28;20499;-67
2023/12/15 08:31:38;;;;;;;15.60;15.00;;;21.20;61.20;;;;;;4993109;28;20513;-68
2023/12/15 08:34:05;;;;;;;16.17;15.37;;;21.20;60.30;;;;;;4993092;28;20453;-68
2023/12/15 08:36:32;;;;;;;16.23;15.37;;;21.20;60.10;;;;;;4992960;28;20471;-68
2023/12/15 08:38:58;;;;;;;18.90;17.50;;;21.20;60.00;;;;;;4992915;28;20494;-68
2023/12/15 08:41:27;;;;;;;16.00;15.13;;;21.20;59.90;;;;;;4992846;28;20702;-68
2023/12/15 08:43:54;;;;;;;15.37;14.77;;;21.20;59.80;;;;;;4992947;28;20503;-67
2023/12/15 08:46:22;;;;;;;16.07;15.30;;;21.20;59.80;;;;;;4992762;28;20446;-68
2023/12/15 08:48:49;;;;;;;16.07;15.47;;;21.20;60.30;;;;;;4992746;28;20467;-67
2023/12/15 08:51:16;;;;;;;17.50;16.23;;;21.20;59.60;;;;;;4992533;28;21028;-67
2023/12/15 08:53:44;;;;;;;16.47;15.50;;;21.20;59.50;;;;;;4992826;28;20451;-68
2023/12/15 08:56:11;;;;;;;14.90;14.40;;;21.20;59.40;;;;;;4992657;28;20451;-68
2023/12/15 08:58:39;;;;;;;16.67;15.77;;;21.20;59.30;;;;;;4992510;28;21028;-68
2023/12/15 09:01:06;;;;;;;15.70;14.90;;;21.10;59.20;;;;;;4992472;28;20481;-66
2023/12/15 09:03:34;;;;;;;16.30;15.30;;;21.20;59.20;;;;;;4992672;28;20479;-67
2023/12/15 09:06:01;;;;;;;16.17;15.40;;;21.10;59.00;;;;;;4992733;28;20447;-68
2023/12/15 09:08:28;;;;;;;15.77;15.07;;;21.20;59.10;;;;;;4992402;28;20479;-68
2023/12/15 09:10:55;;;;;;;16.47;15.67;;;21.10;58.90;;;;;;4992390;28;20891;-67
2023/12/15 09:13:22;;;;;;;15.50;14.80;;;21.10;58.90;;;;;;4992440;28;20475;-68
2023/12/15 09:15:51;;;;;;;16.53;15.63;;;21.10;58.80;;;;;;4992559;28;20446;-68
2023/12/15 09:18:18;;;;;;;15.30;14.53;;;21.10;58.70;;;;;;4992377;28;20474;-68
2023/12/15 09:20:45;;;;;;;15.00;14.10;;;21.10;58.60;;;;;;4992213;28;20499;-67
2023/12/15 09:23:12;;;;;;;14.70;14.03;;;21.10;58.60;;;;;;4992211;28;20470;-67
2023/12/15 09:25:38;;;;;;;14.77;14.27;;;21.10;58.50;;;;;;4992441;28;20473;-66
2023/12/15 09:28:05;;;;;;;14.10;13.50;;;21.10;58.50;;;;;;4992358;28;20483;-68
2023/12/15 09:30:33;;;;;;;16.00;15.47;;;21.10;58.40;;;;;;4984254;28;20510;-67
2023/12/15 09:33:01;;;;;;;13.90;13.40;;;21.00;58.30;;;;;;4992181;28;20926;-68
2023/12/15 09:35:28;;;;;;;15.70;15.10;;;21.00;58.20;;;;;;4992141;28;20467;-67
2023/12/15 09:37:55;;;;;;;14.90;14.30;;;21.00;58.10;;;;;;4992017;28;20950;-67
2023/12/15 09:40:24;;;;;;;14.50;14.00;;;21.00;58.10;;;;;;4991779;28;20524;-66
2023/12/15 09:42:51;;;;;;;14.23;13.73;;;21.00;58.00;;;;;;4992079;28;20443;-67
2023/12/15 09:45:18;;;;;;;15.93;15.30;;;21.00;58.00;;;;;;4992018;28;20447;-67
2023/12/15 09:47:47;;;;;;;14.67;14.13;;;21.00;58.00;;;;;;4992108;28;20865;-67
2023/12/15 09:50:18;;;;;;;15.50;14.60;;;21.00;57.90;;;;;;4991757;28;20487;-68
2023/12/15 09:52:46;;;;;;;15.97;15.07;;;21.00;57.80;;;;;;4992107;28;20837;-67
2023/12/15 09:55:13;;;;;;;14.80;14.30;;;21.00;57.80;;;;;;4992001;28;20451;-67
2023/12/15 09:57:41;;;;;;;15.53;14.73;;;21.00;57.70;;;;;;4992063;28;20954;-67
2023/12/15 10:00:09;;;;;;;15.10;14.50;;;21.00;57.70;;;;;;4991936;28;20497;-67
2023/12/15 10:02:36;;;;;;;15.37;14.67;;;21.00;57.70;;;;;;4984332;28;20881;-68
2023/12/15 10:05:03;;;;;;;14.70;14.10;;;20.90;57.50;;;;;;4991856;28;20443;-67
2023/12/15 10:07:32;;;;;;;16.07;15.47;;;20.90;57.40;;;;;;4991783;28;20470;-68
2023/12/15 10:09:59;;;;;;;14.70;14.20;;;20.90;57.40;;;;;;4991647;28;20502;-68
2023/12/15 10:12:26;;;;;;;16.17;15.50;;;20.90;57.40;;;;;;4991746;28;20505;-68
2023/12/15 10:14:53;;;;;;;15.30;14.77;;;20.90;57.30;;;;;;4991729;28;20946;-68
2023/12/15 10:17:20;;;;;;;15.57;15.07;;;20.90;57.30;;;;;;4991669;28;20446;-67
2023/12/15 10:19:47;;;;;;;15.77;15.17;;;20.90;57.20;;;;;;4991634;28;20505;-68
2023/12/15 10:22:14;;;;;;;15.63;15.03;;;20.90;57.20;;;;;;4991636;28;20475;-68
2023/12/15 10:24:42;;;;;;;14.73;14.23;;;20.90;57.10;;;;;;4991665;28;20479;-68
2023/12/15 10:27:09;;;;;;;15.70;15.00;;;20.90;57.10;;;;;;4991551;28;20510;-67
2023/12/15 10:29:40;;;;;;;15.07;14.47;;;20.90;57.10;;;;;;4991609;28;20549;-68
2023/12/15 10:32:07;;;;;;;14.97;14.37;;;20.90;57.00;;;;;;4991958;28;20486;-67
2023/12/15 10:34:34;;;;;;;14.80;14.30;;;20.90;57.00;;;;;;4991639;28;20442;-67
2023/12/15 10:37:02;;;;;;;14.80;14.23;;;20.90;57.00;;;;;;4991686;28;20472;-68
2023/12/15 10:39:29;;;;;;;16.20;15.60;;;20.90;56.90;;;;;;4991492;28;20502;-68
2023/12/15 10:41:58;;;;;;;16.07;15.40;;;20.90;56.90;;;;;;4991758;28;20509;-67
2023/12/15 10:44:27;;;;;;;15.23;14.70;;;20.80;56.80;;;;;;4991538;28;20958;-67
2023/12/15 10:46:54;;;;;;;16.73;16.13;;;20.90;56.80;;;;;;4991471;28;20446;-67
2023/12/15 10:49:21;;;;;;;16.50;15.90;;;20.80;56.70;;;;;;4991276;28;20495;-67
2023/12/15 10:51:49;;;;;;;15.30;14.90;;;20.90;56.80;;;;;;4991463;28;20561;-68
2023/12/15 10:54:18;;;;;;;15.37;14.83;;;20.90;56.80;;;;;;4994220;28;20482;-66
2023/12/15 10:56:47;;;;;;;16.73;16.23;;;20.90;56.70;;;;;;4994999;28;20447;-68
2023/12/15 10:59:15;;;;;;;15.83;15.13;;;20.90;56.70;;;;;;4994720;28;20470;-68
2023/12/15 11:01:46;;;;;;;15.03;14.50;;;20.80;56.60;;;;;;4995002;28;20498;-67
2023/12/15 11:04:22;;;;;;;14.80;14.30;;;20.80;56.50;;;;;;4994748;28;20458;-67
2023/12/15 11:06:49;;;;;;;14.77;14.30;;;20.80;56.50;;;;;;4994895;28;20882;-67
2023/12/15 11:09:28;;;;;;;15.90;15.30;;;20.80;56.50;;;;;;4994570;28;20522;-67
2023/12/15 11:12:19;;;;;;;15.10;14.60;;;20.80;56.50;;;;;;4994763;28;20497;-67
2023/12/15 11:14:58;;;;;;;14.97;14.47;;;20.80;56.40;;;;;;4988055;28;20466;-68
2023/12/15 11:17:25;;;;;;;15.90;15.40;;;20.80;56.40;;;;;;4994740;28;20466;-66
2023/12/15 11:19:57;;;;;;;15.17;14.67;;;20.80;56.40;;;;;;4994326;28;20471;-67
2023/12/15 11:22:24;;;;;;;15.40;14.97;;;20.80;56.40;;;;;;4994332;28;20466;-68
2023/12/15 11:24:51;;;;;;;14.57;14.03;;;20.80;56.40;;;;;;4994488;28;20478;-68
2023/12/15 11:27:18;;;;;;;15.37;14.47;;;20.80;56.40;;;;;;4994256;28;20474;-67
2023/12/15 11:29:44;;;;;;;15.07;14.67;;;20.80;56.30;;;;;;4994158;28;20793;-68
2023/12/15 11:32:34;;;;;;;16.00;15.50;;;20.80;56.30;;;;;;4994295;28;20534;-68
2023/12/15 11:35:01;;;;;;;14.37;13.87;;;20.80;56.20;;;;;;4989528;28;20609;-68
2023/12/15 11:37:29;;;;;;;13.87;13.30;;;20.70;56.20;;;;;;4994245;28;20474;-67
2023/12/15 11:39:58;;;;;;;13.70;13.20;;;20.70;56.10;;;;;;4994093;28;20469;-67
2023/12/15 11:42:25;;;;;;;13.00;12.40;;;20.70;56.10;;;;;;4994181;28;20520;-66
2023/12/15 11:44:52;;;;;;;13.80;13.30;;;20.70;56.10;;;;;;4994432;28;20978;-68
2023/12/15 11:47:19;;;;;;;14.00;13.50;;;20.70;56.10;;;;;;4993902;28;20458;-67
2023/12/15 11:49:48;;;;;;;13.53;13.03;;;20.70;56.10;;;;;;4993963;28;20463;-68
2023/12/15 11:52:15;;;;;;;14.07;13.57;;;20.70;56.10;;;;;;4993764;28;20513;-69
2023/12/15 11:54:42;;;;;;;13.67;13.27;;;20.70;56.10;;;;;;4993685;28;20440;-68
2023/12/15 11:57:09;;;;;;;14.20;13.77;;;20.70;56.60;;;;;;4993860;28;20447;-68
2023/12/15 11:59:37;;;;;;;13.60;13.10;;;20.70;56.00;;;;;;4993740;28;20490;-67
2023/12/15 12:02:05;;;;;;;13.90;13.40;;;20.70;56.00;;;;;;4993932;28;20477;-67
2023/12/15 12:04:32;;;;;;;14.00;13.60;;;20.70;55.90;;;;;;4993756;28;20443;-67
2023/12/15 12:07:02;;;;;;;13.80;13.20;;;20.70;55.90;;;;;;4994087;28;20443;-68
2023/12/15 12:09:29;;;;;;;13.23;12.83;;;20.70;55.90;;;;;;4993940;28;20471;-67
2023/12/15 12:11:57;;;;;;;12.87;12.47;;;20.70;55.90;;;;;;4993912;28;20562;-66
2023/12/15 12:14:27;;;;;;;14.83;14.33;;;20.70;55.90;;;;;;4993612;28;20450;-68
2023/12/15 12:16:55;;;;;;;13.80;13.40;;;20.70;55.90;;;;;;4993710;28;20538;-68
2023/12/15 12:19:22;;;;;;;15.00;14.50;;;20.60;55.80;;;;;;4993279;28;20477;-69
2023/12/15 12:21:52;;;;;;;13.80;13.40;;;20.70;55.80;;;;;;5033421;23;20916;-71
2023/12/15 12:24:21;;;;;;;13.97;13.47;;;20.70;55.80;;;;;;5013116;28;20438;-71
2023/12/15 12:26:50;;;;;;;14.20;13.70;;;20.70;55.80;;;;;;5012935;28;20449;-71
2023/12/15 12:29:17;;;;;;;14.60;14.10;;;20.70;55.80;;;;;;5012733;28;20977;-72